createdAt,value
2023-03-24T00:00:42.334Z,925.9
2023-03-24T00:15:43.051Z,926
2023-03-24T00:30:44.903Z,926.1
2023-03-24T00:45:45.516Z,926.1
2023-03-24T01:00:48.198Z,926
2023-03-24T01:15:56.227Z,926.1
2023-03-24T01:30:48.296Z,926.3
2023-03-24T01:45:46.432Z,926.3
2023-03-24T02:00:47.889Z,926.2
2023-03-24T02:15:47.605Z,925.8
2023-03-24T02:30:47.909Z,925.8
2023-03-24T02:45:48.759Z,925.3
2023-03-24T03:00:51.454Z,925.3
2023-03-24T03:15:49.853Z,924.9
2023-03-24T03:30:49.939Z,924.8
2023-03-24T03:45:51.014Z,925
2023-03-24T04:00:51.440Z,925.1
2023-03-24T04:15:52.182Z,925.5
2023-03-24T04:30:52.473Z,925.4
2023-03-24T04:45:52.924Z,924.7
2023-03-24T05:00:53.612Z,924.2
2023-03-24T05:14:36.635Z,924.2
2023-03-24T05:29:47.798Z,924.2
2023-03-24T05:44:37.368Z,924.2
2023-03-24T05:59:37.972Z,924.5
2023-03-24T06:14:38.561Z,925.4
2023-03-24T06:29:39.417Z,926.1
2023-03-24T06:44:39.279Z,926
2023-03-24T06:59:40.150Z,925.7
2023-03-24T07:14:41.129Z,926
2023-03-24T07:29:42.085Z,926.2
2023-03-24T07:44:41.283Z,926.2
2023-03-24T07:59:42.517Z,926.2
2023-03-24T08:14:42.812Z,926.2
2023-03-24T08:29:47.544Z,926.4
2023-03-24T08:44:53.260Z,926.4
2023-03-24T08:59:43.829Z,927.1
2023-03-24T09:14:44.943Z,928
2023-03-24T09:29:45.228Z,928.8
2023-03-24T09:44:45.610Z,930.1
2023-03-24T09:59:47.046Z,931.4
2023-03-24T10:15:38.760Z,931.4
2023-03-24T10:29:47.070Z,931.7
2023-03-24T10:44:47.826Z,930.8
2023-03-24T10:59:48.959Z,930.5
2023-03-24T11:14:48.607Z,930
2023-03-24T11:29:48.504Z,927.9
2023-03-24T11:44:49.737Z,928.4
2023-03-24T11:59:51.210Z,930.2
2023-03-24T12:14:50.836Z,929.5
2023-03-24T12:30:26.410Z,929.5
2023-03-24T12:44:51.982Z,931.1
2023-03-24T12:59:53.113Z,928.7
2023-03-24T13:14:53.321Z,928.3
2023-03-24T13:29:53.615Z,928.3
2023-03-24T13:45:05.264Z,928.3
2023-03-24T13:59:54.241Z,931.1
2023-03-24T14:14:57.347Z,932.5
2023-03-24T14:29:58.093Z,932.5
2023-03-24T14:44:57.183Z,933
2023-03-24T15:00:00.507Z,933.4
2023-03-24T15:15:01.164Z,933.1
2023-03-24T15:30:03.372Z,933.1
2023-03-24T15:44:59.827Z,932.8
2023-03-24T16:00:04.049Z,932.8
2023-03-24T16:15:02.101Z,932
2023-03-24T16:30:00.618Z,931.4
2023-03-24T16:45:01.334Z,931.3
2023-03-24T17:00:02.216Z,932.3
2023-03-24T17:15:08.344Z,932.6
2023-03-24T17:30:02.949Z,931.7
2023-03-24T17:45:03.169Z,930.6
2023-03-24T18:00:04.432Z,930
2023-03-24T18:15:03.919Z,930.7
2023-03-24T18:30:07.414Z,930.7
2023-03-24T18:45:07.306Z,932.5
2023-03-24T19:00:06.418Z,933.5
2023-03-24T19:15:16.687Z,933.5
2023-03-24T19:30:06.521Z,932.6
2023-03-24T19:45:12.715Z,932.6
2023-03-24T20:00:08.030Z,931.3
2023-03-24T20:15:13.009Z,931.3
2023-03-24T20:30:08.944Z,932.9
2023-03-24T20:45:09.448Z,929.5
2023-03-24T21:00:09.716Z,929.3
2023-03-24T21:15:15.044Z,929
2023-03-24T21:30:10.503Z,929.5
2023-03-24T21:45:11.250Z,929.6
2023-03-24T22:00:13.056Z,928.9
2023-03-24T22:15:13.027Z,929.5
2023-03-24T22:30:13.271Z,929.4
2023-03-24T22:45:17.764Z,929.4
2023-03-24T23:00:15.938Z,929.3
2023-03-24T23:15:36.590Z,929.2
2023-03-24T23:30:38.904Z,929.2
2023-03-24T23:45:36.873Z,928.9
